Lawrenceville, New York
Current Conditions -  °F | °C
As of 1:53 PM on Tuesday 21 Oct 2014 (Local Time) from KMSS Reporting Station
Overcast Overcast  
Wind Chill: 38°   Ceiling: 1100
Heat Index: 45°   Visibility: 10mi
Dew Point: 41°   Wind: 15mph
Humidity: 86%   Direction: 40°NE
Pressure: 30"   Gusts: NA
Location:  44.77°N, 74.65°W
Report Text: KMSS 211753Z AUTO 04013KT 10SM OVC011 07/05 A3000 RMK AO2 RAB17E26 SLP163 P0000 60000 T00720050 10078 20067 51007
Loading
Personal Weather Stations






























Interactive Weather Map
Tropical Storm Tracking
New forecast layout! Learn more

10-Day Weather Forecast

Advertisements
Track Severe Weather on mobile